Time;durP1;ratioP1;P1;durP2;ratioP2;P2;SDS_P1;SDS_P2;PMS_P1;PMS_P2;Temp;Humidity;BMP_temperature;BMP_pressure;BME280_temperature;BME280_humidity;BME280_pressure;Samples;Min_cycle;Max_cycle;Signal;HPM_P1;HPM_P2
2022/04/21 00:01:43;;;;;;;61.40;29.98;;;;;;;;;;4956539;29;20102;-50
2022/04/21 00:04:09;;;;;;;82.32;33.47;;;;;;;;;;4956574;29;20027;-48
2022/04/21 00:06:36;;;;;;;81.32;31.60;;;;;;;;;;4956317;29;20376;-48
2022/04/21 00:09:02;;;;;;;76.68;31.67;;;;;;;;;;4956001;29;20023;-50
2022/04/21 00:11:28;;;;;;;68.35;32.25;;;;;;;;;;4956141;29;20023;-51
2022/04/21 00:13:54;;;;;;;114.25;28.88;;;;;;;;;;4956095;29;20376;-51
2022/04/21 00:16:21;;;;;;;101.70;28.98;;;;;;;;;;4955538;29;20023;-56
2022/04/21 00:18:48;;;;;;;146.48;29.48;;;;;;;;;;4956153;29;20023;-57
2022/04/21 00:21:14;;;;;;;116.65;30.73;;;;;;;;;;4955795;29;20023;-54
2022/04/21 00:23:40;;;;;;;107.57;32.15;;;;;;;;;;4955412;29;20033;-55
2022/04/21 00:26:07;;;;;;;69.22;30.92;;;;;;;;;;4955841;29;20384;-51
2022/04/21 00:28:33;;;;;;;66.28;29.05;;;;;;;;;;4955953;29;20030;-52
2022/04/21 00:30:59;;;;;;;84.07;28.55;;;;;;;;;;4955729;29;20031;-54
2022/04/21 00:33:26;;;;;;;80.13;26.25;;;;;;;;;;4955542;29;20071;-49
2022/04/21 00:35:52;;;;;;;59.13;25.73;;;;;;;;;;4955853;29;20110;-57
2022/04/21 00:38:18;;;;;;;120.65;27.50;;;;;;;;;;4955589;29;20055;-54
2022/04/21 00:40:44;;;;;;;92.57;26.70;;;;;;;;;;4955522;29;20389;-52
2022/04/21 00:43:10;;;;;;;81.43;28.02;;;;;;;;;;4938473;29;20030;-49
2022/04/21 00:45:37;;;;;;;79.72;26.45;;;;;;;;;;4938245;29;20058;-53
2022/04/21 00:48:04;;;;;;;100.07;26.30;;;;;;;;;;4955447;29;20031;-53
2022/04/21 00:50:32;;;;;;;60.30;26.27;;;;;;;;;;4955357;29;20472;-51
2022/04/21 00:52:58;;;;;;;121.18;26.95;;;;;;;;;;4954700;28;20031;-50
2022/04/21 00:55:25;;;;;;;116.82;28.70;;;;;;;;;;4955686;29;20023;-48
2022/04/21 00:57:52;;;;;;;121.05;28.70;;;;;;;;;;4955414;29;20027;-54
2022/04/21 01:00:19;;;;;;;151.35;30.70;;;;;;;;;;4955199;29;20492;-52
2022/04/21 01:02:52;;;;;;;159.45;27.38;;;;;;;;;;4955548;29;20035;-51
2022/04/21 01:05:20;;;;;;;77.80;27.33;;;;;;;;;;4955288;29;20022;-53
2022/04/21 01:07:46;;;;;;;69.88;26.15;;;;;;;;;;4955279;29;20469;-52
2022/04/21 01:10:13;;;;;;;105.85;25.08;;;;;;;;;;4955394;29;20094;-51
2022/04/21 01:12:41;;;;;;;78.80;24.73;;;;;;;;;;4954870;29;20029;-49
2022/04/21 01:15:07;;;;;;;67.68;24.02;;;;;;;;;;4955291;29;20098;-48
2022/04/21 01:17:34;;;;;;;79.85;23.80;;;;;;;;;;4955449;29;20027;-54
2022/04/21 01:20:01;;;;;;;89.82;23.63;;;;;;;;;;4955045;29;20039;-48
2022/04/21 01:22:28;;;;;;;56.13;25.30;;;;;;;;;;4955394;29;20030;-49
2022/04/21 01:24:54;;;;;;;57.13;22.55;;;;;;;;;;4955021;29;20066;-49
2022/04/21 01:27:23;;;;;;;62.42;24.27;;;;;;;;;;4954757;29;20040;-49
2022/04/21 01:29:50;;;;;;;54.03;23.30;;;;;;;;;;4955276;29;20086;-50
2022/04/21 01:32:16;;;;;;;40.28;22.83;;;;;;;;;;4954942;29;20023;-53
2022/04/21 01:34:42;;;;;;;60.63;25.75;;;;;;;;;;4954709;29;20496;-55
2022/04/21 01:42:38;;;;;;;52.40;27.45;;;;;;;;;;4955070;29;20070;-51
2022/04/21 01:45:04;;;;;;;71.82;27.58;;;;;;;;;;4954898;29;20031;-52
2022/04/21 01:47:30;;;;;;;42.38;24.02;;;;;;;;;;4955091;29;20074;-52
2022/04/21 01:49:56;;;;;;;47.65;26.05;;;;;;;;;;4955202;29;20024;-50
2022/04/21 01:52:22;;;;;;;51.92;24.70;;;;;;;;;;4955155;29;20023;-53
2022/04/21 01:54:50;;;;;;;50.00;24.23;;;;;;;;;;4954608;29;20031;-51
2022/04/21 01:57:22;;;;;;;46.88;24.85;;;;;;;;;;4955289;29;20027;-54
2022/04/21 01:59:51;;;;;;;42.65;24.25;;;;;;;;;;4954888;29;20488;-50
2022/04/21 02:02:17;;;;;;;39.50;23.98;;;;;;;;;;4954773;29;20350;-52
2022/04/21 02:04:44;;;;;;;34.95;21.55;;;;;;;;;;4938577;29;20436;-52
2022/04/21 02:07:10;;;;;;;33.92;20.67;;;;;;;;;;4958229;29;20042;-52
2022/04/21 02:09:36;;;;;;;30.85;19.40;;;;;;;;;;4958448;29;20081;-54
2022/04/21 02:12:02;;;;;;;31.50;20.05;;;;;;;;;;4958167;29;20069;-55
2022/04/21 02:14:28;;;;;;;28.63;18.30;;;;;;;;;;4958477;29;20035;-53
2022/04/21 02:16:54;;;;;;;30.27;18.40;;;;;;;;;;4957803;29;20038;-57
2022/04/21 02:19:20;;;;;;;25.95;17.63;;;;;;;;;;4957994;29;20385;-53
2022/04/21 02:21:46;;;;;;;26.15;18.73;;;;;;;;;;4957925;29;20049;-52
2022/04/21 02:24:13;;;;;;;27.50;17.92;;;;;;;;;;4958429;29;20042;-53
2022/04/21 02:26:39;;;;;;;54.70;22.63;;;;;;;;;;4957917;29;20027;-55
2022/04/21 02:29:05;;;;;;;53.25;23.13;;;;;;;;;;4957760;29;20023;-52
2022/04/21 02:31:31;;;;;;;89.97;26.17;;;;;;;;;;4957982;29;20396;-51
2022/04/21 02:33:57;;;;;;;56.90;24.92;;;;;;;;;;4957999;29;20082;-56
2022/04/21 02:36:23;;;;;;;70.45;28.33;;;;;;;;;;4957427;29;20059;-52
2022/04/21 02:38:49;;;;;;;50.50;25.92;;;;;;;;;;4958028;29;20023;-53
2022/04/21 02:41:16;;;;;;;31.52;19.20;;;;;;;;;;4957900;29;20023;-50
2022/04/21 02:43:42;;;;;;;29.10;18.45;;;;;;;;;;4957933;29;20038;-51
2022/04/21 02:46:09;;;;;;;26.42;17.60;;;;;;;;;;4957898;29;20030;-55
2022/04/21 02:48:36;;;;;;;30.92;17.77;;;;;;;;;;4958320;29;20016;-51
2022/04/21 02:51:02;;;;;;;26.13;17.13;;;;;;;;;;4957455;29;20030;-55
2022/04/21 02:59:00;;;;;;;25.02;16.48;;;;;;;;;;4957131;29;20035;-57
2022/04/21 03:01:26;;;;;;;25.52;17.20;;;;;;;;;;4957525;29;20024;-52
2022/04/21 03:03:54;;;;;;;30.40;18.48;;;;;;;;;;4957201;29;20027;-55
2022/04/21 03:06:20;;;;;;;26.23;16.50;;;;;;;;;;4957131;29;20481;-57
2022/04/21 03:08:47;;;;;;;25.58;16.38;;;;;;;;;;4957154;29;20038;-54
2022/04/21 03:11:13;;;;;;;26.60;16.77;;;;;;;;;;4956800;29;20035;-55
2022/04/21 03:13:39;;;;;;;27.00;16.83;;;;;;;;;;4957434;29;20392;-52
2022/04/21 03:16:05;;;;;;;26.38;16.88;;;;;;;;;;4956681;28;20028;-52
2022/04/21 03:18:31;;;;;;;24.83;17.55;;;;;;;;;;4957096;29;20019;-53
2022/04/21 03:26:27;;;;;;;27.92;18.48;;;;;;;;;;4956482;29;20499;-54
2022/04/21 03:28:53;;;;;;;30.05;18.52;;;;;;;;;;4957296;29;20067;-50
2022/04/21 03:31:19;;;;;;;32.03;19.40;;;;;;;;;;4956949;29;20027;-53
2022/04/21 03:33:46;;;;;;;32.67;19.80;;;;;;;;;;4956041;28;20043;-48
2022/04/21 03:36:12;;;;;;;30.83;18.08;;;;;;;;;;4956452;29;20481;-52
2022/04/21 03:38:39;;;;;;;32.22;19.90;;;;;;;;;;4956583;29;20465;-49
2022/04/21 03:41:05;;;;;;;33.75;19.65;;;;;;;;;;4956739;29;20023;-49
2022/04/21 03:43:32;;;;;;;31.63;19.60;;;;;;;;;;4939568;29;20034;-50
2022/04/21 03:45:58;;;;;;;35.28;19.85;;;;;;;;;;4956370;29;20103;-51
2022/04/21 03:48:24;;;;;;;33.08;20.23;;;;;;;;;;4956317;29;20028;-49
2022/04/21 03:50:50;;;;;;;32.53;18.80;;;;;;;;;;4956598;29;20424;-53
2022/04/21 03:53:16;;;;;;;33.08;19.40;;;;;;;;;;4956157;29;20042;-51
2022/04/21 03:55:42;;;;;;;33.05;19.95;;;;;;;;;;4956180;29;20019;-52
2022/04/21 03:58:08;;;;;;;35.92;20.20;;;;;;;;;;4956322;29;20023;-51
2022/04/21 04:00:35;;;;;;;34.58;19.55;;;;;;;;;;4956171;29;20385;-53
2022/04/21 04:03:01;;;;;;;32.15;19.27;;;;;;;;;;4956405;29;20019;-54
2022/04/21 04:05:27;;;;;;;31.23;18.60;;;;;;;;;;4956565;29;20094;-50
2022/04/21 04:10:53;;;;;;;31.70;18.80;;;;;;;;;;4956361;29;20507;-51
2022/04/21 04:13:19;;;;;;;33.13;19.45;;;;;;;;;;4956270;29;20043;-50
2022/04/21 04:15:48;;;;;;;31.23;19.05;;;;;;;;;;4956189;29;20047;-49
2022/04/21 04:18:15;;;;;;;29.08;18.63;;;;;;;;;;4956618;28;20372;-51
2022/04/21 04:20:41;;;;;;;30.00;18.02;;;;;;;;;;4957479;28;20106;-54
2022/04/21 04:23:07;;;;;;;32.25;18.23;;;;;;;;;;4967700;28;20031;-54
2022/04/21 04:25:35;;;;;;;33.97;19.65;;;;;;;;;;4956278;29;20034;-51
2022/04/21 04:28:03;;;;;;;30.65;18.80;;;;;;;;;;4955407;28;20476;-54
2022/04/21 04:30:29;;;;;;;31.45;19.38;;;;;;;;;;4967571;28;20037;-52
2022/04/21 04:32:56;;;;;;;33.83;18.85;;;;;;;;;;4975171;28;20046;-54
2022/04/21 04:35:25;;;;;;;32.08;18.45;;;;;;;;;;4974585;28;20058;-57
2022/04/21 04:37:52;;;;;;;29.45;17.50;;;;;;;;;;4975154;28;20076;-56
2022/04/21 04:40:18;;;;;;;26.23;17.17;;;;;;;;;;4974838;28;20030;-56
2022/04/21 04:42:44;;;;;;;25.70;16.75;;;;;;;;;;4974775;28;20037;-54
2022/04/21 04:47:55;;;;;;;31.30;17.52;;;;;;;;;;4974838;28;20042;-56
2022/04/21 04:50:22;;;;;;;31.73;19.10;;;;;;;;;;4974612;28;20030;-54
2022/04/21 04:52:48;;;;;;;26.30;17.98;;;;;;;;;;4974751;28;20023;-55
2022/04/21 04:55:14;;;;;;;27.88;17.02;;;;;;;;;;4974977;28;20035;-54
2022/04/21 04:57:40;;;;;;;29.85;17.73;;;;;;;;;;4958192;28;20029;-52
2022/04/21 05:00:08;;;;;;;29.33;17.08;;;;;;;;;;4955498;29;20020;-59
2022/04/21 05:02:34;;;;;;;26.13;16.48;;;;;;;;;;4955563;29;20023;-52
2022/04/21 05:05:01;;;;;;;24.63;16.00;;;;;;;;;;4955095;29;20031;-53
2022/04/21 05:07:27;;;;;;;28.15;15.27;;;;;;;;;;4955200;29;20023;-56
2022/04/21 05:09:53;;;;;;;26.92;16.80;;;;;;;;;;4955485;29;20031;-56
2022/04/21 05:12:20;;;;;;;24.33;16.02;;;;;;;;;;4955647;29;20027;-57
2022/04/21 05:14:48;;;;;;;21.55;14.85;;;;;;;;;;4955048;29;20119;-56
2022/04/21 05:17:15;;;;;;;22.85;14.93;;;;;;;;;;4955106;29;20163;-50
2022/04/21 05:19:41;;;;;;;25.73;15.88;;;;;;;;;;4955549;29;20435;-55
2022/04/21 05:22:11;;;;;;;28.95;17.50;;;;;;;;;;4955344;29;20170;-57
2022/04/21 05:24:39;;;;;;;75.13;44.00;;;;;;;;;;4954962;29;20019;-55
2022/04/21 05:27:05;;;;;;;75.28;45.60;;;;;;;;;;4954856;29;20026;-52
2022/04/21 05:32:20;;;;;;;87.95;51.63;;;;;;;;;;4954831;29;20058;-52
2022/04/21 05:34:47;;;;;;;40.33;25.77;;;;;;;;;;4955354;29;20042;-55
2022/04/21 05:37:13;;;;;;;76.10;47.63;;;;;;;;;;4954985;29;20032;-64
2022/04/21 05:39:39;;;;;;;44.65;30.02;;;;;;;;;;4955657;28;20031;-53
2022/04/21 05:42:06;;;;;;;30.52;20.63;;;;;;;;;;4958816;29;20027;-58
2022/04/21 05:44:32;;;;;;;27.52;20.15;;;;;;;;;;4958723;29;20023;-54
2022/04/21 05:46:59;;;;;;;29.83;16.92;;;;;;;;;;4958624;29;20098;-56
2022/04/21 05:49:25;;;;;;;23.33;16.60;;;;;;;;;;4959035;29;20033;-56
2022/04/21 05:51:53;;;;;;;38.15;25.63;;;;;;;;;;4957845;29;20055;-52
2022/04/21 05:54:19;;;;;;;28.30;19.80;;;;;;;;;;4958843;29;20097;-52
2022/04/21 05:56:45;;;;;;;26.38;17.10;;;;;;;;;;4957107;29;20034;-56
2022/04/21 05:59:11;;;;;;;24.60;16.17;;;;;;;;;;4956831;29;20034;-52
2022/04/21 06:01:37;;;;;;;23.73;16.05;;;;;;;;;;4957870;29;20028;-55
2022/04/21 06:04:04;;;;;;;30.30;18.65;;;;;;;;;;4958310;29;20035;-55
2022/04/21 06:06:30;;;;;;;36.25;20.73;;;;;;;;;;4958041;29;20495;-53
2022/04/21 06:08:57;;;;;;;26.70;17.55;;;;;;;;;;4958267;29;20031;-51
2022/04/21 06:11:24;;;;;;;35.70;24.17;;;;;;;;;;4957629;29;20403;-52
2022/04/21 06:13:51;;;;;;;27.52;18.33;;;;;;;;;;4957675;29;20035;-52
2022/04/21 06:16:17;;;;;;;26.40;17.33;;;;;;;;;;4958285;29;20066;-54
2022/04/21 06:18:44;;;;;;;29.13;17.00;;;;;;;;;;4958316;29;20024;-54
2022/04/21 06:21:10;;;;;;;28.58;19.50;;;;;;;;;;4957655;29;20038;-54
2022/04/21 06:23:36;;;;;;;26.90;17.20;;;;;;;;;;4958204;29;20413;-54
2022/04/21 06:26:03;;;;;;;24.08;16.73;;;;;;;;;;4958139;29;20023;-51
2022/04/21 06:28:30;;;;;;;25.75;17.73;;;;;;;;;;4957870;29;20465;-54
2022/04/21 06:30:56;;;;;;;29.67;19.27;;;;;;;;;;4957800;29;20054;-52
2022/04/21 06:33:22;;;;;;;28.77;17.70;;;;;;;;;;4958249;28;20047;-54
2022/04/21 06:35:49;;;;;;;26.05;17.42;;;;;;;;;;4957551;29;20102;-56
2022/04/21 06:38:15;;;;;;;28.10;17.38;;;;;;;;;;4957978;29;20078;-50
2022/04/21 06:40:41;;;;;;;30.45;19.13;;;;;;;;;;4957571;29;20038;-54
2022/04/21 06:48:37;;;;;;;29.20;18.45;;;;;;;;;;4969401;28;20038;-54
2022/04/21 06:51:04;;;;;;;31.30;20.00;;;;;;;;;;4975272;28;20105;-55
2022/04/21 06:53:30;;;;;;;29.13;19.08;;;;;;;;;;4974188;28;20034;-53
2022/04/21 06:55:56;;;;;;;25.00;17.95;;;;;;;;;;4974524;28;20527;-52
2022/04/21 06:58:22;;;;;;;29.42;18.95;;;;;;;;;;4975963;28;20023;-53
2022/04/21 07:00:48;;;;;;;30.23;19.67;;;;;;;;;;4976072;28;20031;-55
2022/04/21 07:03:15;;;;;;;27.58;19.73;;;;;;;;;;4974761;28;20031;-53
2022/04/21 07:05:41;;;;;;;30.38;19.00;;;;;;;;;;4975418;28;20034;-54
2022/04/21 07:08:08;;;;;;;25.83;18.35;;;;;;;;;;4974934;28;20395;-51
2022/04/21 07:10:35;;;;;;;29.80;19.40;;;;;;;;;;4975392;28;20023;-56
2022/04/21 07:13:08;;;;;;;29.95;20.10;;;;;;;;;;4975835;28;20027;-54
2022/04/21 07:15:34;;;;;;;27.10;17.95;;;;;;;;;;4975605;28;20027;-55
2022/04/21 07:18:01;;;;;;;22.67;16.00;;;;;;;;;;4976110;28;20031;-53
2022/04/21 07:20:27;;;;;;;25.52;16.98;;;;;;;;;;4976008;28;20342;-52
2022/04/21 07:22:53;;;;;;;23.95;16.45;;;;;;;;;;4975915;28;20109;-52
2022/04/21 07:25:19;;;;;;;24.60;15.70;;;;;;;;;;4976399;28;20037;-56
2022/04/21 07:27:45;;;;;;;22.00;15.65;;;;;;;;;;4976272;28;20022;-55
2022/04/21 07:30:12;;;;;;;24.75;16.05;;;;;;;;;;4975967;28;20022;-57
2022/04/21 07:32:38;;;;;;;26.85;17.98;;;;;;;;;;4976130;28;20039;-52
2022/04/21 07:35:04;;;;;;;23.13;15.93;;;;;;;;;;4976184;28;20464;-55
2022/04/21 07:37:32;;;;;;;27.80;19.08;;;;;;;;;;4975889;28;20409;-52
2022/04/21 07:39:59;;;;;;;25.60;18.25;;;;;;;;;;4976521;28;20380;-55
2022/04/21 07:42:25;;;;;;;24.35;16.83;;;;;;;;;;4976018;28;20404;-53
2022/04/21 07:44:51;;;;;;;24.77;16.42;;;;;;;;;;4975487;28;20035;-58
2022/04/21 07:47:17;;;;;;;23.10;16.23;;;;;;;;;;4975960;28;20034;-52
2022/04/21 07:49:47;;;;;;;22.80;15.57;;;;;;;;;;4976161;28;20170;-54
2022/04/21 07:55:07;;;;;;;22.67;16.35;;;;;;;;;;4975329;28;20065;-52
2022/04/21 07:57:33;;;;;;;22.23;15.68;;;;;;;;;;4976246;28;20081;-53
2022/04/21 07:59:59;;;;;;;21.40;15.70;;;;;;;;;;4975857;28;20448;-55
2022/04/21 08:02:25;;;;;;;21.05;15.40;;;;;;;;;;4975520;28;20022;-56
2022/04/21 08:04:51;;;;;;;20.40;15.07;;;;;;;;;;4975493;28;20023;-58
2022/04/21 08:07:17;;;;;;;22.30;15.52;;;;;;;;;;4975956;28;20534;-56
2022/04/21 08:09:44;;;;;;;25.13;17.35;;;;;;;;;;4975358;28;20034;-55
2022/04/21 08:12:10;;;;;;;23.52;16.05;;;;;;;;;;4975613;28;20077;-54
2022/04/21 08:14:36;;;;;;;29.38;20.77;;;;;;;;;;4975523;28;20074;-53
2022/04/21 08:17:03;;;;;;;21.77;15.60;;;;;;;;;;4975763;28;20019;-55
2022/04/21 08:19:29;;;;;;;23.48;17.05;;;;;;;;;;4975181;28;20069;-53
2022/04/21 08:21:56;;;;;;;21.05;15.02;;;;;;;;;;4975215;28;20444;-58
2022/04/21 08:32:44;;;;;;;29.85;18.80;;;;;;;;;;4973572;28;20066;-49
2022/04/21 08:35:13;;;;;;;20.67;15.02;;;;;;;;;;4975004;28;20070;-50
2022/04/21 08:37:42;;;;;;;21.60;15.27;;;;;;;;;;4974774;28;20027;-57
2022/04/21 08:40:10;;;;;;;22.73;16.67;;;;;;;;;;4957258;28;20018;-53
2022/04/21 08:42:37;;;;;;;28.48;16.55;;;;;;;;;;4975071;28;20033;-51
2022/04/21 08:45:04;;;;;;;25.40;17.48;;;;;;;;;;4975145;28;20023;-53
2022/04/21 08:47:31;;;;;;;24.25;16.45;;;;;;;;;;4974921;28;20027;-53
2022/04/21 08:50:03;;;;;;;23.38;16.08;;;;;;;;;;4957583;28;20073;-54
2022/04/21 08:52:29;;;;;;;23.27;15.63;;;;;;;;;;4974683;28;20031;-51
2022/04/21 08:54:55;;;;;;;22.80;15.65;;;;;;;;;;4974292;28;20031;-51
2022/04/21 08:57:39;;;;;;;23.67;16.50;;;;;;;;;;4973830;28;20027;-56
2022/04/21 09:00:12;;;;;;;21.92;16.27;;;;;;;;;;4973870;28;20019;-53
2022/04/21 09:02:40;;;;;;;22.27;16.30;;;;;;;;;;4974079;28;20030;-54
2022/04/21 09:05:07;;;;;;;24.45;17.33;;;;;;;;;;4974500;28;20019;-49
2022/04/21 09:07:42;;;;;;;24.38;16.60;;;;;;;;;;4974456;28;20369;-52
2022/04/21 09:10:17;;;;;;;25.33;16.67;;;;;;;;;;4974905;28;20023;-57
2022/04/21 09:12:59;;;;;;;25.08;17.23;;;;;;;;;;4974427;28;20023;-56
2022/04/21 09:15:32;;;;;;;25.52;17.33;;;;;;;;;;4975890;28;20380;-57
2022/04/21 09:18:09;;;;;;;24.63;17.55;;;;;;;;;;4978387;28;20023;-57
2022/04/21 09:20:39;;;;;;;27.38;17.00;;;;;;;;;;4978120;28;20050;-56
2022/04/21 09:23:12;;;;;;;20.92;15.98;;;;;;;;;;4977299;28;20488;-57
2022/04/21 09:25:52;;;;;;;24.77;15.65;;;;;;;;;;4976627;28;20018;-54
2022/04/21 09:28:50;;;;;;;23.65;16.80;;;;;;;;;;4977238;28;20093;-57
2022/04/21 09:31:58;;;;;;;24.27;16.40;;;;;;;;;;4977408;28;20091;-54
2022/04/21 09:34:41;;;;;;;21.88;15.00;;;;;;;;;;4965465;28;20404;-58
2022/04/21 09:37:25;;;;;;;20.30;14.18;;;;;;;;;;4978119;28;20093;-56
2022/04/21 09:39:58;;;;;;;23.88;16.55;;;;;;;;;;4977948;28;20026;-58
2022/04/21 09:42:44;;;;;;;26.35;17.13;;;;;;;;;;4977135;28;20110;-52
2022/04/21 09:48:38;;;;;;;24.45;16.05;;;;;;;;;;4977616;28;20129;-58
2022/04/21 09:51:21;;;;;;;22.27;15.80;;;;;;;;;;4976842;28;20463;-54
2022/04/21 09:53:59;;;;;;;21.52;14.95;;;;;;;;;;4976687;28;20042;-51
2022/04/21 09:56:44;;;;;;;24.65;17.08;;;;;;;;;;4977087;28;20058;-57
2022/04/21 09:59:37;;;;;;;24.73;16.73;;;;;;;;;;4977605;28;20046;-58
2022/04/21 10:02:33;;;;;;;22.20;16.50;;;;;;;;;;4977224;28;20101;-54
2022/04/21 10:04:59;;;;;;;22.77;16.17;;;;;;;;;;4977310;28;20023;-55
2022/04/21 10:07:32;;;;;;;27.42;17.35;;;;;;;;;;4978058;28;20037;-57
2022/04/21 10:10:01;;;;;;;24.48;16.85;;;;;;;;;;4977414;28;20023;-55
2022/04/21 10:12:30;;;;;;;24.70;17.50;;;;;;;;;;4976529;28;20545;-57
2022/04/21 10:14:56;;;;;;;19.30;14.50;;;;;;;;;;4976892;28;20035;-51
2022/04/21 10:17:22;;;;;;;20.23;14.23;;;;;;;;;;4977121;28;20098;-55
2022/04/21 10:19:52;;;;;;;18.67;13.65;;;;;;;;;;4977094;28;20018;-52
2022/04/21 10:22:19;;;;;;;29.48;18.30;;;;;;;;;;4977117;28;20094;-55
2022/04/21 10:24:46;;;;;;;32.10;19.50;;;;;;;;;;4976991;28;20118;-57
2022/04/21 10:27:31;;;;;;;18.52;13.07;;;;;;;;;;4977571;28;20022;-54
2022/04/21 10:29:57;;;;;;;20.95;14.82;;;;;;;;;;4975883;28;20029;-50
2022/04/21 10:32:43;;;;;;;19.75;14.98;;;;;;;;;;4976187;28;20094;-51
2022/04/21 10:35:41;;;;;;;20.75;15.45;;;;;;;;;;4976267;28;20444;-52
2022/04/21 10:38:13;;;;;;;17.63;12.68;;;;;;;;;;4976285;28;20014;-52
2022/04/21 10:40:58;;;;;;;18.88;12.32;;;;;;;;;;4976883;28;20531;-54
2022/04/21 10:43:47;;;;;;;21.58;13.88;;;;;;;;;;4977086;28;20035;-55
2022/04/21 10:46:21;;;;;;;17.83;12.13;;;;;;;;;;4971221;28;20053;-55
2022/04/21 10:48:47;;;;;;;20.20;15.45;;;;;;;;;;4977144;28;20535;-53
2022/04/21 10:51:13;;;;;;;21.90;15.70;;;;;;;;;;4977585;28;20027;-53
2022/04/21 11:00:04;;;;;;;17.90;12.30;;;;;;;;;;4976719;28;20122;-53
2022/04/21 11:02:40;;;;;;;15.98;12.18;;;;;;;;;;4976916;28;20030;-51
2022/04/21 11:05:27;;;;;;;17.17;11.43;;;;;;;;;;4976887;28;20034;-52
2022/04/21 11:07:55;;;;;;;21.35;13.00;;;;;;;;;;4976366;28;20023;-54
2022/04/21 11:10:27;;;;;;;14.82;10.77;;;;;;;;;;4977022;28;20464;-51
2022/04/21 11:12:53;;;;;;;17.48;10.77;;;;;;;;;;4977468;28;20035;-54
2022/04/21 11:15:36;;;;;;;15.57;11.60;;;;;;;;;;4976279;28;20464;-53
2022/04/21 11:18:10;;;;;;;16.73;9.85;;;;;;;;;;4976270;28;20038;-57
2022/04/21 11:20:37;;;;;;;11.80;9.10;;;;;;;;;;4975956;28;20384;-53
2022/04/21 11:23:04;;;;;;;11.02;8.18;;;;;;;;;;4976515;28;20030;-54
2022/04/21 11:25:33;;;;;;;13.00;9.48;;;;;;;;;;4976228;28;20050;-54
2022/04/21 11:28:00;;;;;;;19.20;9.02;;;;;;;;;;4976095;28;20030;-55
2022/04/21 11:30:26;;;;;;;17.67;8.88;;;;;;;;;;4976078;28;20424;-55
2022/04/21 11:32:52;;;;;;;15.32;9.35;;;;;;;;;;4976014;28;20023;-54
2022/04/21 11:35:21;;;;;;;12.07;8.98;;;;;;;;;;4976066;28;20579;-52
2022/04/21 11:37:54;;;;;;;15.52;10.02;;;;;;;;;;4975351;28;20384;-53
2022/04/21 11:40:23;;;;;;;14.73;9.88;;;;;;;;;;4976246;28;20027;-54
2022/04/21 11:42:50;;;;;;;12.05;8.90;;;;;;;;;;4975947;28;20062;-52
2022/04/21 11:45:23;;;;;;;15.93;10.20;;;;;;;;;;4976198;28;20041;-52
2022/04/21 11:47:49;;;;;;;15.40;9.82;;;;;;;;;;4976035;28;20026;-55
2022/04/21 11:50:19;;;;;;;15.05;11.52;;;;;;;;;;4975684;28;20054;-56
2022/04/21 11:52:46;;;;;;;15.90;10.50;;;;;;;;;;4975951;28;20023;-56
2022/04/21 11:55:16;;;;;;;14.00;9.98;;;;;;;;;;4975779;28;20023;-50
2022/04/21 11:57:42;;;;;;;14.63;9.60;;;;;;;;;;4975239;28;20053;-55
2022/04/21 12:00:09;;;;;;;15.77;11.05;;;;;;;;;;4976061;28;20037;-52
2022/04/21 12:08:11;;;;;;;18.75;14.27;;;;;;;;;;4975779;28;20491;-52
2022/04/21 12:10:38;;;;;;;19.15;13.95;;;;;;;;;;4975354;28;20026;-52
2022/04/21 12:13:04;;;;;;;19.10;13.02;;;;;;;;;;4975489;28;20030;-51
2022/04/21 12:15:31;;;;;;;16.58;11.95;;;;;;;;;;4975237;28;20030;-55
2022/04/21 12:18:00;;;;;;;20.25;12.27;;;;;;;;;;4975052;28;20031;-54
2022/04/21 12:20:27;;;;;;;16.67;12.50;;;;;;;;;;4975782;28;20027;-52
2022/04/21 12:22:54;;;;;;;19.67;12.55;;;;;;;;;;4975333;28;20110;-54
2022/04/21 12:25:28;;;;;;;18.17;12.77;;;;;;;;;;4975514;28;20031;-51
2022/04/21 12:27:55;;;;;;;18.98;11.15;;;;;;;;;;4974738;28;20069;-53
2022/04/21 12:30:21;;;;;;;11.55;5.95;;;;;;;;;;4974902;28;20046;-54
2022/04/21 12:32:49;;;;;;;5.05;3.90;;;;;;;;;;4975411;28;20519;-55
2022/04/21 12:35:15;;;;;;;4.55;3.80;;;;;;;;;;4975098;28;20059;-52
2022/04/21 12:38:50;;;;;;;9.02;5.05;;;;;;;;;;4975717;28;20038;-57
2022/04/21 12:40:38;;;;;;;14.82;5.25;;;;;;;;;;4974888;28;20046;-56
2022/04/21 12:43:05;;;;;;;7.97;4.60;;;;;;;;;;4974717;28;20026;-53
2022/04/21 12:45:31;;;;;;;10.48;4.97;;;;;;;;;;4974786;28;20030;-53
2022/04/21 12:47:58;;;;;;;10.98;6.13;;;;;;;;;;4975320;28;20033;-50
2022/04/21 12:50:25;;;;;;;10.35;6.30;;;;;;;;;;4973415;28;20502;-56
2022/04/21 12:52:52;;;;;;;10.13;5.72;;;;;;;;;;4974651;28;20463;-55
2022/04/21 12:55:21;;;;;;;10.82;6.22;;;;;;;;;;4974595;28;20026;-55
2022/04/21 12:58:00;;;;;;;10.02;4.95;;;;;;;;;;4974794;28;20035;-53
2022/04/21 13:00:27;;;;;;;11.93;6.00;;;;;;;;;;4974945;28;20431;-50
2022/04/21 13:02:53;;;;;;;7.35;5.68;;;;;;;;;;4974450;28;20027;-55
2022/04/21 13:05:19;;;;;;;11.32;3.90;;;;;;;;;;4974609;28;20031;-56
2022/04/21 13:07:45;;;;;;;7.55;4.80;;;;;;;;;;4974746;28;20046;-52
2022/04/21 13:10:11;;;;;;;8.45;5.10;;;;;;;;;;4974962;28;20027;-56
2022/04/21 13:12:37;;;;;;;10.57;6.70;;;;;;;;;;4975072;28;20027;-53
2022/04/21 13:15:04;;;;;;;8.00;6.30;;;;;;;;;;4974902;28;20039;-57
2022/04/21 13:17:30;;;;;;;13.55;6.60;;;;;;;;;;4974202;28;20027;-55
2022/04/21 13:19:56;;;;;;;8.60;6.25;;;;;;;;;;4974484;28;20023;-56
2022/04/21 13:22:23;;;;;;;7.22;4.82;;;;;;;;;;4974904;28;20027;-51
2022/04/21 13:24:49;;;;;;;14.13;8.75;;;;;;;;;;4974486;28;20026;-54
2022/04/21 13:27:21;;;;;;;10.88;6.82;;;;;;;;;;4975091;28;20033;-53
2022/04/21 13:29:48;;;;;;;10.15;5.95;;;;;;;;;;4974361;28;20054;-53
2022/04/21 13:34:59;;;;;;;12.48;8.65;;;;;;;;;;4975281;28;20150;-58
2022/04/21 13:37:25;;;;;;;13.00;8.18;;;;;;;;;;4974970;28;20114;-52
2022/04/21 13:39:51;;;;;;;13.70;11.13;;;;;;;;;;4974519;28;20380;-53
2022/04/21 13:42:17;;;;;;;9.85;6.25;;;;;;;;;;4974287;28;20019;-53
2022/04/21 13:44:43;;;;;;;5.97;5.00;;;;;;;;;;4974266;28;20102;-52
2022/04/21 13:47:10;;;;;;;10.10;6.28;;;;;;;;;;4974191;28;20077;-51
2022/04/21 13:49:37;;;;;;;11.50;6.53;;;;;;;;;;4974483;28;20030;-50
2022/04/21 13:52:03;;;;;;;10.10;5.53;;;;;;;;;;4974555;28;20109;-48
2022/04/21 13:54:29;;;;;;;9.20;6.95;;;;;;;;;;4974222;28;20034;-52
2022/04/21 13:56:56;;;;;;;7.78;4.35;;;;;;;;;;4974040;28;20483;-50
2022/04/21 13:59:22;;;;;;;11.13;6.97;;;;;;;;;;4973680;28;20073;-51
2022/04/21 14:01:49;;;;;;;10.68;5.50;;;;;;;;;;4976590;28;20427;-52
2022/04/21 14:04:15;;;;;;;15.05;7.10;;;;;;;;;;4977861;28;20050;-52
2022/04/21 14:06:41;;;;;;;12.88;6.10;;;;;;;;;;4977725;28;20376;-52
2022/04/21 14:09:07;;;;;;;12.95;7.15;;;;;;;;;;4978148;28;20530;-50
2022/04/21 14:11:34;;;;;;;10.77;6.53;;;;;;;;;;4977673;28;20094;-57
2022/04/21 14:14:01;;;;;;;9.27;5.07;;;;;;;;;;4977253;28;20114;-52
2022/04/21 14:16:27;;;;;;;10.10;6.50;;;;;;;;;;4977453;28;20025;-50
2022/04/21 14:18:53;;;;;;;10.73;6.05;;;;;;;;;;4977418;28;20123;-53
2022/04/21 14:21:20;;;;;;;14.60;11.02;;;;;;;;;;4976952;28;20034;-50
2022/04/21 14:23:46;;;;;;;9.20;6.20;;;;;;;;;;4977419;28;20031;-52
2022/04/21 14:26:14;;;;;;;15.38;7.47;;;;;;;;;;4977333;28;20030;-48
2022/04/21 14:28:40;;;;;;;11.57;5.38;;;;;;;;;;4977461;28;20107;-50
2022/04/21 14:31:10;;;;;;;8.55;4.63;;;;;;;;;;4977378;28;20030;-52
2022/04/21 14:33:39;;;;;;;6.78;4.65;;;;;;;;;;4976805;28;20022;-51
2022/04/21 14:36:06;;;;;;;7.50;4.68;;;;;;;;;;4977263;28;20081;-51
2022/04/21 14:44:04;;;;;;;10.35;5.90;;;;;;;;;;4977304;28;20042;-53
2022/04/21 14:46:37;;;;;;;12.45;5.70;;;;;;;;;;4977069;28;20023;-51
2022/04/21 14:49:05;;;;;;;8.82;5.47;;;;;;;;;;4976745;28;20427;-52
2022/04/21 14:51:31;;;;;;;6.05;4.43;;;;;;;;;;4976974;28;20121;-54
2022/04/21 14:53:58;;;;;;;7.47;3.97;;;;;;;;;;4976801;28;20031;-53
2022/04/21 14:56:24;;;;;;;9.95;4.07;;;;;;;;;;4976320;28;20053;-54
2022/04/21 14:58:50;;;;;;;10.98;5.70;;;;;;;;;;4977198;28;20018;-52
2022/04/21 15:01:17;;;;;;;10.57;5.38;;;;;;;;;;4976470;28;20019;-52
2022/04/21 15:03:43;;;;;;;9.85;5.95;;;;;;;;;;4977373;28;20105;-55
2022/04/21 15:06:10;;;;;;;11.30;6.35;;;;;;;;;;4976801;28;20524;-54
2022/04/21 15:08:37;;;;;;;13.07;7.20;;;;;;;;;;4976352;28;20475;-52
2022/04/21 15:11:04;;;;;;;15.13;9.27;;;;;;;;;;4976336;28;20031;-53
2022/04/21 15:13:31;;;;;;;10.27;6.68;;;;;;;;;;4975909;28;20361;-55
2022/04/21 15:15:57;;;;;;;10.65;6.88;;;;;;;;;;4976295;28;20023;-52
2022/04/21 15:18:23;;;;;;;9.85;6.40;;;;;;;;;;4976583;28;20026;-53
2022/04/21 15:20:49;;;;;;;9.13;6.45;;;;;;;;;;4976558;28;20023;-52
2022/04/21 15:23:15;;;;;;;13.05;7.78;;;;;;;;;;4976255;28;20101;-51
2022/04/21 15:25:42;;;;;;;9.57;6.28;;;;;;;;;;4976675;28;20027;-52
2022/04/21 15:28:09;;;;;;;9.18;4.75;;;;;;;;;;4959309;28;20376;-51
2022/04/21 15:30:40;;;;;;;9.63;5.57;;;;;;;;;;4975990;28;20034;-55
2022/04/21 15:33:07;;;;;;;9.30;6.07;;;;;;;;;;4976331;28;20468;-53